Farwell, TX (79325)

7:03 AM CDT on October 02, 2014 (GMT -0500)
Colonial Heights | Change Station
CLOSE
Current Station
Personal Weather Station
Location: Clovis, NM
Elevation: 4324 ft
Nearby Weather Stations

Elev 4324 ft 34.44 °N, 103.18 °W | Updated 10 minutes ago

Clear
Clear
55.2 °F
Feels Like 55.2 °F
N
4.2
Wind Variable Wind from NNE

Today
High -- | Low -- °F
--% Chance of Precip.
Yesterday
High -- | Low -- °F
Precip. -- in
7:47 AM 7:34 PM
First Quarter, 58% visible
Pressure 29.83 in
Visibility 10.0 miles
Clouds Scattered Clouds 11000 ft
Dew Point 46 °F
Humidity 70%
Rainfall 0.00 in
Snow Depth Not available.
UV 0 out of 12
Pollen 9.10 out of 12
Air Quality Not available.
Flu Activity Not available.
METAR KCVS 021158Z AUTO 03012KT 10SM SCT110 14/07 A2997 RMK AO2 SLP100 T01350066 10166 20127 53027 $

More Conditions Fewer Conditions

Pressure 29.83 in
Visibility 10.0 miles
Clouds Scattered Clouds 11000 ft
Dew Point 46 °F
Humidity 70%
Rainfall 0.00 in
Snow Depth Not available.
UV 0 out of 12
Pollen 9.10 out of 12
Air Quality Not available.
Flu Activity Not available.
METAR KCVS 021158Z AUTO 03012KT 10SM SCT110 14/07 A2997 RMK AO2 SLP100 T01350066 10166 20127 53027 $

More Conditions Fewer Conditions

10-Day Weather Forecast

Almanac

Astronomy

Oct. 02, 2014 Rise Set
Actual Time 7:47 AM CDT 7:34 PM CDT
Civil Twilight 7:22 AM CDT 7:59 PM CDT
Nautical Twilight 6:53 AM CDT 8:28 PM CDT
Astronomical Twilight 6:24 AM CDT 8:58 PM CDT
Moon 3:29 PM CDT 1:20 AM CDT
Length of Visible Light 12h 37m
Length of Day
11h 47m
Tomorrow will be 2m 8s shorter.
First Quarter, 58% of the Moon is Illuminated
Today
First Quarter
Oct 8
Full
Oct 15
Last Quarter
Oct 23
New
Oct 30
First Quarter

Today's Extremes

State Highs State Lows

Community

WunderPhotos

Upload Photos

1,758,223 photos uploaded!

WunderBlogs® & News

Nearby

Snow Depth

Station Depth Elevation
No new snow has been reported.

Earthquake Activity

City Distance Mag. Time & Date
No recent earthquake activity has been reported nearby.
Minimum magnitude displayed is 2.5.

Coastal Water Temperatures

Place Temperature
No Stations Reporting

Nearby Weather Stations